KCLW/CLW METAR and TAF weather

Enter ICAO airport designator
Station Type Date Time Source
KCLW METAR 2019/02/21 11:55 UTC NOAA

KCLW 211155Z AUTO 13006KT 10SM CLR 20/19 A3010 RMK AO2


Station Type Date Time Source
KCLW Decoded METAR 2019/02/21 11:55 UTC NOAA

Station name not available
Feb 21, 2019 - 06:55 AM EST / 2019.02.21 1155 UTC
Wind: from the SE (130 degrees) at 7 MPH (6 KT):0
Visibility: 10 mile(s):0
Sky conditions: clear
Temperature: 68 F (20 C)
Dew Point: 66 F (19 C)
Relative Humidity: 93%
Pressure (altimeter): 30.1 in. Hg (1019 hPa)
ob: KCLW 211155Z AUTO 13006KT 10SM CLR 20/19 A3010 RMK AO2
cycle: 12

Station Type Date Time Source
KCLW TAF UTC NOAA

Error!


Example: see airport list